CDT,Max TemperatureF,Mean TemperatureF,Min TemperatureF,Max Dew PointF,MeanDew PointF,Min DewpointF,Max Humidity, Mean Humidity, Min Humidity, Max Sea Level PressureIn, Mean Sea Level PressureIn, Min Sea Level PressureIn, Max VisibilityMiles, Mean VisibilityMiles, Min VisibilityMiles, Max Wind SpeedMPH, Mean Wind SpeedMPH, Max Gust SpeedMPH,PrecipitationIn, CloudCover, Events, WindDirDegrees
2013-3-1,57,46,35,31,28,24,70,51,31,30.32,30.25,30.20,10,10,9,13,7,18,0.00,1,,348
2013-3-2,54,43,32,28,23,17,75,49,25,30.44,30.34,30.27,10,10,8,17,10,29,0.00,0,,356
2013-3-3,70,52,34,43,30,23,67,44,25,30.26,30.08,29.88,10,10,10,23,11,36,0.00,0,,179
2013-3-4,77,66,55,56,49,43,75,57,36,29.87,29.74,29.65,10,10,10,30,20,40,0.00,0,,191
2013-3-5,62,52,41,46,26,16,63,39,20,30.37,30.22,29.86,10,10,9,30,20,39,0.00,0,,345
2013-3-6,59,46,32,33,23,17,66,41,20,30.47,30.35,30.23,10,10,9,9,6,,0.00,0,,33
2013-3-7,70,56,42,39,31,25,65,40,19,30.28,30.20,30.13,10,10,8,16,7,20,0.00,0,,145
2013-3-8,64,58,53,57,51,43,81,74,67,30.23,30.13,30.04,10,9,7,15,9,,0.00,6,Rain,142
2013-3-9,73,66,60,61,59,54,84,74,64,30.03,29.85,29.69,10,8,6,25,16,32,0.00,8,Rain-Thunderstorm,162
2013-3-10,63,52,39,61,48,31,100,75,45,30.10,29.86,29.74,10,6,0,24,11,36,1.53,5,Fog-Rain-Thunderstorm,286
2013-3-11,59,45,33,33,27,19,86,54,22,30.15,30.10,30.04,10,10,8,14,6,22,0.00,0,,325
2013-3-12,69,53,37,33,28,24,68,42,21,30.31,30.17,30.07,10,10,8,13,6,,0.00,0,,94
2013-3-13,70,56,43,38,34,30,71,45,25,30.46,30.38,30.32,10,10,8,10,5,,0.00,0,Rain,74
2013-3-14,75,60,46,47,41,35,71,51,33,30.39,30.31,30.21,10,10,6,18,9,28,0.00,0,,173
2013-3-15,79,66,53,53,47,41,86,56,28,30.21,30.10,29.96,10,10,10,24,13,31,0.00,0,,191
2013-3-16,82,70,59,58,55,51,88,64,38,29.94,29.84,29.73,10,10,9,23,17,31,0.00,1,,185
2013-3-17,78,70,62,61,60,57,88,72,54,29.82,29.75,29.67,10,10,8,18,13,28,0.00,7,,192
2013-3-18,77,67,57,64,56,43,90,68,43,30.00,29.81,29.71,10,8,5,17,9,25,0.00,3,,328
2013-3-19,71,58,46,50,44,39,83,59,39,30.12,30.02,29.96,10,9,2,16,8,23,0.39,2,Rain-Thunderstorm,50
2013-3-20,68,57,46,46,36,27,74,48,22,30.29,30.17,30.05,10,10,10,13,6,20,0.00,0,Rain,39
2013-3-21,73,61,50,57,44,33,77,54,38,30.03,29.79,29.62,10,10,9,23,12,31,0.00,4,,152
2013-3-22,73,60,48,63,56,46,90,79,63,29.84,29.72,29.60,10,7,5,20,12,22,0.00,7,,270
2013-3-23,60,54,48,54,50,46,94,86,77,29.86,29.74,29.68,8,5,0,13,7,18,0.13,8,Fog-Rain-Thunderstorm,39
2013-3-24,54,46,39,48,33,26,83,62,35,30.19,30.02,29.79,10,10,7,28,18,37,0.00,3,,330
2013-3-25,55,44,33,25,21,16,61,42,23,30.43,30.33,30.20,10,10,10,22,10,30,0.00,0,,355
2013-3-26,57,45,33,29,23,20,64,44,27,30.53,30.42,30.34,10,10,10,9,4,,0.00,0,,36
2013-3-27,71,54,37,42,33,25,62,47,27,30.36,30.26,30.14,10,10,10,18,10,25,0.00,0,,159
2013-3-28,71,61,51,56,51,43,83,68,57,30.26,30.20,30.13,10,10,9,16,11,20,0.00,6,,152
2013-3-29,75,66,59,58,56,54,87,69,55,30.21,30.15,30.09,10,10,7,16,12,24,0.00,6,,163
2013-3-30,75,66,57,63,59,55,100,81,60,30.14,30.04,29.92,10,8,1,17,10,28,0.74,6,Rain-Thunderstorm,175
2013-3-31,75,68,62,64,60,55,94,79,56,30.01,29.93,29.86,10,8,2,16,10,28,0.14,4,Rain-Thunderstorm,263